METAR Data
IDs: Format: Raw Decoded Include TAF

Data at: 1315 UTC 26 Feb 2021

ESOW 261250Z 31014KT 280V350 CAVOK 11/00 Q1012 R01/19//95